Armona, California
Current Conditions -  °F | °C
As of 11:53 AM on Saturday 25 Oct 2014 (Local Time) from KHJO Reporting Station
Clear Clear  
Wind Chill: 76°   Ceiling: Unl
Heat Index: 76°   Visibility: 9mi
Dew Point: 48°   Wind: 9mph
Humidity: 37%   Direction: 120°ESE
Pressure: 30.06"   Gusts: NA
Location:  36.32°N, 119.71°W
Report Text: KHJO 251853Z AUTO 12008KT 9SM CLR 24/09 A3006 RMK AO2 SLP181 T02440089
Loading
Personal Weather Stations






























Interactive Weather Map
Tropical Storm Tracking
New forecast layout! Learn more

10-Day Weather Forecast

Advertisements
Track Severe Weather on mobile